sensor_id;sensor_type;location;lat;lon;timestamp;pressure;altitude;pressure_sealevel;temperature;humidity
68433;BME280;55412;51.350;17.056;2024-03-07T00:02:18;101132.75;;;0.94;84.97
68433;BME280;55412;51.350;17.056;2024-03-07T00:04:44;101129.25;;;0.92;85.29
68433;BME280;55412;51.350;17.056;2024-03-07T00:07:09;101129.25;;;0.92;85.68
68433;BME280;55412;51.350;17.056;2024-03-07T00:09:35;101136.28;;;0.96;85.59
68433;BME280;55412;51.350;17.056;2024-03-07T00:12:04;101134.50;;;0.95;85.64
68433;BME280;55412;51.350;17.056;2024-03-07T00:14:33;101135.41;;;0.96;85.33
68433;BME280;55412;51.350;17.056;2024-03-07T00:17:01;101137.16;;;0.97;85.16
68433;BME280;55412;51.350;17.056;2024-03-07T00:19:28;101137.94;;;0.96;85.16
68433;BME280;55412;51.350;17.056;2024-03-07T00:21:58;101139.59;;;0.95;85.61
68433;BME280;55412;51.350;17.056;2024-03-07T00:24:24;101135.41;;;0.96;85.11
68433;BME280;55412;51.350;17.056;2024-03-07T00:26:50;101134.41;;;0.94;85.52
68433;BME280;55412;51.350;17.056;2024-03-07T00:29:17;101143.78;;;0.93;85.14
68433;BME280;55412;51.350;17.056;2024-03-07T00:31:46;101136.09;;;0.93;85.15
68433;BME280;55412;51.350;17.056;2024-03-07T00:34:15;101130.06;;;0.91;84.94
68433;BME280;55412;51.350;17.056;2024-03-07T00:36:44;101129.19;;;0.91;85.10
68433;BME280;55412;51.350;17.056;2024-03-07T00:39:10;101117.91;;;0.87;85.42
68433;BME280;55412;51.350;17.056;2024-03-07T00:41:39;101125.50;;;0.86;84.85
68433;BME280;55412;51.350;17.056;2024-03-07T00:44:06;101125.31;;;0.81;85.16
68433;BME280;55412;51.350;17.056;2024-03-07T00:46:34;101127.94;;;0.82;85.33
68433;BME280;55412;51.350;17.056;2024-03-07T00:49:00;101132.97;;;0.81;85.23
68433;BME280;55412;51.350;17.056;2024-03-07T00:51:26;101133.75;;;0.80;84.80
68433;BME280;55412;51.350;17.056;2024-03-07T00:53:52;101125.13;;;0.78;85.17
68433;BME280;55412;51.350;17.056;2024-03-07T00:56:17;101121.56;;;0.74;84.99
68433;BME280;55412;51.350;17.056;2024-03-07T00:58:44;101116.34;;;0.73;84.85
68433;BME280;55412;51.350;17.056;2024-03-07T01:01:09;101119.16;;;0.77;85.46
68433;BME280;55412;51.350;17.056;2024-03-07T01:03:36;101117.34;;;0.75;85.11
68433;BME280;55412;51.350;17.056;2024-03-07T01:06:03;101118.28;;;0.77;85.18
68433;BME280;55412;51.350;17.056;2024-03-07T01:08:29;101129.44;;;0.79;85.42
68433;BME280;55412;51.350;17.056;2024-03-07T01:10:58;101126.19;;;0.81;85.41
68433;BME280;55412;51.350;17.056;2024-03-07T01:13:24;101122.81;;;0.82;85.27
68433;BME280;55412;51.350;17.056;2024-03-07T01:15:50;101129.69;;;0.83;85.18
68433;BME280;55412;51.350;17.056;2024-03-07T01:18:16;101127.19;;;0.85;85.20
68433;BME280;55412;51.350;17.056;2024-03-07T01:20:42;101125.75;;;0.90;85.37
68433;BME280;55412;51.350;17.056;2024-03-07T01:23:08;101121.56;;;0.92;85.14
68433;BME280;55412;51.350;17.056;2024-03-07T01:25:34;101119.75;;;0.90;84.99
68433;BME280;55412;51.350;17.056;2024-03-07T01:28:00;101115.47;;;0.89;84.89
68433;BME280;55412;51.350;17.056;2024-03-07T01:30:26;101122.22;;;0.88;85.22
68433;BME280;55412;51.350;17.056;2024-03-07T01:32:54;101116.16;;;0.86;84.89
68433;BME280;55412;51.350;17.056;2024-03-07T01:35:20;101119.53;;;0.85;85.28
68433;BME280;55412;51.350;17.056;2024-03-07T01:37:46;101120.25;;;0.82;84.73
68433;BME280;55412;51.350;17.056;2024-03-07T01:40:12;101115.22;;;0.84;85.09
68433;BME280;55412;51.350;17.056;2024-03-07T01:42:40;101116.84;;;0.82;85.03
68433;BME280;55412;51.350;17.056;2024-03-07T01:45:06;101118.59;;;0.83;85.26
68433;BME280;55412;51.350;17.056;2024-03-07T01:47:34;101125.44;;;0.84;84.84
68433;BME280;55412;51.350;17.056;2024-03-07T01:50:02;101118.50;;;0.81;84.83
68433;BME280;55412;51.350;17.056;2024-03-07T01:52:29;101129.69;;;0.83;84.72
68433;BME280;55412;51.350;17.056;2024-03-07T01:54:56;101128.00;;;0.84;85.40
68433;BME280;55412;51.350;17.056;2024-03-07T01:57:22;101125.44;;;0.84;85.38
68433;BME280;55412;51.350;17.056;2024-03-07T01:59:48;101116.09;;;0.85;85.35
68433;BME280;55412;51.350;17.056;2024-03-07T02:02:16;101127.19;;;0.85;85.39
68433;BME280;55412;51.350;17.056;2024-03-07T02:04:43;101123.03;;;0.87;85.16
68433;BME280;55412;51.350;17.056;2024-03-07T02:07:09;101126.44;;;0.88;85.10
68433;BME280;55412;51.350;17.056;2024-03-07T02:09:37;101119.59;;;0.87;85.30
68433;BME280;55412;51.350;17.056;2024-03-07T02:12:03;101118.00;;;0.89;85.28
68433;BME280;55412;51.350;17.056;2024-03-07T02:14:29;101121.44;;;0.89;84.80
68433;BME280;55412;51.350;17.056;2024-03-07T02:16:55;101122.38;;;0.91;85.33
68433;BME280;55412;51.350;17.056;2024-03-07T02:19:22;101116.41;;;0.91;85.27
68433;BME280;55412;51.350;17.056;2024-03-07T02:21:48;101128.38;;;0.92;85.30
68433;BME280;55412;51.350;17.056;2024-03-07T02:24:14;101123.31;;;0.93;85.19
68433;BME280;55412;51.350;17.056;2024-03-07T02:26:41;101118.06;;;0.90;84.89
68433;BME280;55412;51.350;17.056;2024-03-07T02:29:07;101121.56;;;0.92;85.18
68433;BME280;55412;51.350;17.056;2024-03-07T02:31:32;101121.72;;;0.95;85.14
68433;BME280;55412;51.350;17.056;2024-03-07T02:34:05;101113.97;;;0.94;85.09
68433;BME280;55412;51.350;17.056;2024-03-07T02:36:33;101126.19;;;0.99;85.27
68433;BME280;55412;51.350;17.056;2024-03-07T02:38:59;101126.19;;;0.99;84.95
68433;BME280;55412;51.350;17.056;2024-03-07T02:41:25;101129.63;;;1.00;85.04
68433;BME280;55412;51.350;17.056;2024-03-07T02:43:51;101125.25;;;0.97;84.76
68433;BME280;55412;51.350;17.056;2024-03-07T02:46:18;101124.50;;;1.00;84.85
68433;BME280;55412;51.350;17.056;2024-03-07T02:48:44;101131.38;;;1.01;84.80
68433;BME280;55412;51.350;17.056;2024-03-07T02:51:10;101125.38;;;1.00;84.65
68433;BME280;55412;51.350;17.056;2024-03-07T02:53:37;101120.94;;;0.96;84.75
68433;BME280;55412;51.350;17.056;2024-03-07T02:56:04;101127.13;;;1.01;85.07
68433;BME280;55412;51.350;17.056;2024-03-07T02:58:33;101128.81;;;1.01;84.80
68433;BME280;55412;51.350;17.056;2024-03-07T03:00:59;101127.22;;;1.03;84.92
68433;BME280;55412;51.350;17.056;2024-03-07T03:03:26;101124.56;;;1.01;84.70
68433;BME280;55412;51.350;17.056;2024-03-07T03:05:52;101128.88;;;1.02;85.07
68433;BME280;55412;51.350;17.056;2024-03-07T03:08:17;101126.41;;;1.04;85.15
68433;BME280;55412;51.350;17.056;2024-03-07T03:10:43;101118.59;;;1.01;84.80
68433;BME280;55412;51.350;17.056;2024-03-07T03:13:09;101125.53;;;1.03;84.94
68433;BME280;55412;51.350;17.056;2024-03-07T03:15:35;101123.88;;;1.04;84.69
68433;BME280;55412;51.350;17.056;2024-03-07T03:18:04;101126.25;;;1.01;84.52
68433;BME280;55412;51.350;17.056;2024-03-07T03:20:31;101132.41;;;1.04;84.72
68433;BME280;55412;51.350;17.056;2024-03-07T03:23:00;101127.28;;;1.04;85.05
68433;BME280;55412;51.350;17.056;2024-03-07T03:25:28;101134.16;;;1.05;84.77
68433;BME280;55412;51.350;17.056;2024-03-07T03:27:54;101129.03;;;1.05;84.88
68433;BME280;55412;51.350;17.056;2024-03-07T03:30:19;101131.66;;;1.07;84.56
68433;BME280;55412;51.350;17.056;2024-03-07T03:32:49;101127.34;;;1.06;84.29
68433;BME280;55412;51.350;17.056;2024-03-07T03:35:15;101132.59;;;1.09;84.88
68433;BME280;55412;51.350;17.056;2024-03-07T03:37:44;101136.84;;;1.08;84.43
68433;BME280;55412;51.350;17.056;2024-03-07T03:40:10;101123.13;;;1.06;84.54
68433;BME280;55412;51.350;17.056;2024-03-07T03:42:40;101125.03;;;1.10;85.04
68433;BME280;55412;51.350;17.056;2024-03-07T03:45:07;101120.63;;;1.08;84.82
68433;BME280;55412;51.350;17.056;2024-03-07T03:47:38;101126.78;;;1.12;84.36
68433;BME280;55412;51.350;17.056;2024-03-07T03:50:04;101115.69;;;1.11;84.77
68433;BME280;55412;51.350;17.056;2024-03-07T03:52:31;101120.69;;;1.09;84.90
68433;BME280;55412;51.350;17.056;2024-03-07T03:54:58;101123.25;;;1.09;84.74
68433;BME280;55412;51.350;17.056;2024-03-07T03:57:28;101127.66;;;1.12;84.91
68433;BME280;55412;51.350;17.056;2024-03-07T03:59:57;101119.91;;;1.10;84.97
68433;BME280;55412;51.350;17.056;2024-03-07T04:02:23;101127.59;;;1.10;84.53
68433;BME280;55412;51.350;17.056;2024-03-07T04:04:50;101124.00;;;1.07;84.68
68433;BME280;55412;51.350;17.056;2024-03-07T04:07:17;101126.78;;;1.12;84.41
68433;BME280;55412;51.350;17.056;2024-03-07T04:09:44;101127.66;;;1.12;85.03
68433;BME280;55412;51.350;17.056;2024-03-07T04:12:10;101120.78;;;1.11;84.51
68433;BME280;55412;51.350;17.056;2024-03-07T04:14:39;101115.53;;;1.08;84.96
68433;BME280;55412;51.350;17.056;2024-03-07T04:17:10;101123.13;;;1.06;84.43
68433;BME280;55412;51.350;17.056;2024-03-07T04:19:41;101135.25;;;1.10;84.82
68433;BME280;55412;51.350;17.056;2024-03-07T04:22:07;101127.66;;;1.12;84.46
68433;BME280;55412;51.350;17.056;2024-03-07T04:24:36;101125.97;;;1.13;84.87
68433;BME280;55412;51.350;17.056;2024-03-07T04:27:03;101132.03;;;1.15;84.63
68433;BME280;55412;51.350;17.056;2024-03-07T04:29:32;101124.06;;;1.08;84.49
68433;BME280;55412;51.350;17.056;2024-03-07T04:31:59;101119.75;;;1.07;84.76
68433;BME280;55412;51.350;17.056;2024-03-07T04:34:26;101131.03;;;1.11;84.64
68433;BME280;55412;51.350;17.056;2024-03-07T04:36:53;101138.00;;;1.15;84.87
68433;BME280;55412;51.350;17.056;2024-03-07T04:39:19;101120.78;;;1.11;85.04
68433;BME280;55412;51.350;17.056;2024-03-07T04:41:54;101135.53;;;1.17;84.86
68433;BME280;55412;51.350;17.056;2024-03-07T04:44:20;101129.72;;;1.19;84.51
68433;BME280;55412;51.350;17.056;2024-03-07T04:46:49;101130.59;;;1.20;84.51
68433;BME280;55412;51.350;17.056;2024-03-07T04:49:24;101134.88;;;1.21;84.43
68433;BME280;55412;51.350;17.056;2024-03-07T04:51:56;101134.94;;;1.22;84.74
68433;BME280;55412;51.350;17.056;2024-03-07T04:54:24;101133.19;;;1.21;84.78
68433;BME280;55412;51.350;17.056;2024-03-07T04:56:51;101143.66;;;1.26;84.39
68433;BME280;55412;51.350;17.056;2024-03-07T04:59:18;101137.75;;;1.27;84.27
68433;BME280;55412;51.350;17.056;2024-03-07T05:01:45;101145.53;;;1.30;84.78
68433;BME280;55412;51.350;17.056;2024-03-07T05:04:14;101138.63;;;1.27;84.41
68433;BME280;55412;51.350;17.056;2024-03-07T05:06:41;101140.50;;;1.31;84.55
68433;BME280;55412;51.350;17.056;2024-03-07T05:09:08;101147.38;;;1.32;84.66
68433;BME280;55412;51.350;17.056;2024-03-07T05:11:34;101147.22;;;1.29;84.35
68433;BME280;55412;51.350;17.056;2024-03-07T05:14:01;101147.38;;;1.32;84.62
68433;BME280;55412;51.350;17.056;2024-03-07T05:16:28;101146.47;;;1.32;84.27
68433;BME280;55412;51.350;17.056;2024-03-07T05:18:54;101149.03;;;1.32;84.27
68433;BME280;55412;51.350;17.056;2024-03-07T05:21:23;101151.81;;;1.36;84.07
68433;BME280;55412;51.350;17.056;2024-03-07T05:24:01;101149.13;;;1.33;84.42
68433;BME280;55412;51.350;17.056;2024-03-07T05:26:28;101156.81;;;1.33;83.82
68433;BME280;55412;51.350;17.056;2024-03-07T05:29:04;101163.00;;;1.38;84.15
68433;BME280;55412;51.350;17.056;2024-03-07T05:31:31;101160.44;;;1.38;83.88
68433;BME280;55412;51.350;17.056;2024-03-07T05:34:01;101166.53;;;1.41;84.11
68433;BME280;55412;51.350;17.056;2024-03-07T05:36:36;101166.53;;;1.41;83.76
68433;BME280;55412;51.350;17.056;2024-03-07T05:39:09;101170.78;;;1.40;83.88
68433;BME280;55412;51.350;17.056;2024-03-07T05:41:42;101170.59;;;1.37;83.64
68433;BME280;55412;51.350;17.056;2024-03-07T05:44:10;101174.97;;;1.39;83.27
68433;BME280;55412;51.350;17.056;2024-03-07T05:46:39;101173.41;;;1.42;83.89
68433;BME280;55412;51.350;17.056;2024-03-07T05:49:15;101176.91;;;1.44;83.15
68433;BME280;55412;51.350;17.056;2024-03-07T05:51:42;101172.66;;;1.44;83.46
68433;BME280;55412;51.350;17.056;2024-03-07T05:54:13;101170.16;;;1.46;83.52
68433;BME280;55412;51.350;17.056;2024-03-07T05:56:40;101176.25;;;1.48;82.91
68433;BME280;55412;51.350;17.056;2024-03-07T05:59:06;101183.13;;;1.49;83.23
68433;BME280;55412;51.350;17.056;2024-03-07T06:01:36;101182.38;;;1.51;83.26
68433;BME280;55412;51.350;17.056;2024-03-07T06:04:03;101173.88;;;1.52;83.17
68433;BME280;55412;51.350;17.056;2024-03-07T06:06:31;101178.34;;;1.56;82.88
68433;BME280;55412;51.350;17.056;2024-03-07T06:09:05;101178.41;;;1.58;82.62
68433;BME280;55412;51.350;17.056;2024-03-07T06:11:37;101180.16;;;1.59;82.25
68433;BME280;55412;51.350;17.056;2024-03-07T06:14:04;101187.78;;;1.57;82.55
68433;BME280;55412;51.350;17.056;2024-03-07T06:16:31;101186.69;;;1.52;82.60
68433;BME280;55412;51.350;17.056;2024-03-07T06:19:01;101182.44;;;1.53;82.13
68433;BME280;55412;51.350;17.056;2024-03-07T06:21:28;101194.66;;;1.58;82.34
68433;BME280;55412;51.350;17.056;2024-03-07T06:23:56;101200.69;;;1.60;82.41
68433;BME280;55412;51.350;17.056;2024-03-07T06:26:26;101194.72;;;1.60;82.26
68433;BME280;55412;51.350;17.056;2024-03-07T06:29:15;101203.56;;;1.66;82.12
68433;BME280;55412;51.350;17.056;2024-03-07T06:31:42;101205.31;;;1.67;82.15
68433;BME280;55412;51.350;17.056;2024-03-07T06:34:08;101208.16;;;1.74;81.97
68433;BME280;55412;51.350;17.056;2024-03-07T06:36:36;101208.44;;;1.80;82.29
68433;BME280;55412;51.350;17.056;2024-03-07T06:39:02;101212.97;;;1.85;81.96
68433;BME280;55412;51.350;17.056;2024-03-07T06:41:32;101204.44;;;1.85;81.98
68433;BME280;55412;51.350;17.056;2024-03-07T06:43:58;101221.06;;;1.94;82.33
68433;BME280;55412;51.350;17.056;2024-03-07T06:46:23;101215.38;;;2.00;81.93
68433;BME280;55412;51.350;17.056;2024-03-07T06:48:50;101221.56;;;2.05;81.70
68433;BME280;55412;51.350;17.056;2024-03-07T06:51:17;101220.16;;;2.12;82.05
68433;BME280;55412;51.350;17.056;2024-03-07T06:53:45;101218.69;;;2.17;81.72
68433;BME280;55412;51.350;17.056;2024-03-07T06:56:15;101217.22;;;2.22;81.79
68433;BME280;55412;51.350;17.056;2024-03-07T06:58:42;101221.72;;;2.28;81.82
68433;BME280;55412;51.350;17.056;2024-03-07T07:01:09;101221.19;;;2.35;81.49
68433;BME280;55412;51.350;17.056;2024-03-07T07:03:37;101219.66;;;2.38;81.70
68433;BME280;55412;51.350;17.056;2024-03-07T07:06:03;101225.88;;;2.43;81.25
68433;BME280;55412;51.350;17.056;2024-03-07T07:08:31;101220.47;;;2.37;81.26
68433;BME280;55412;51.350;17.056;2024-03-07T07:10:57;101224.44;;;2.31;80.92
68433;BME280;55412;51.350;17.056;2024-03-07T07:13:23;101226.78;;;2.26;81.00
68433;BME280;55412;51.350;17.056;2024-03-07T07:15:49;101219.09;;;2.26;81.46
68433;BME280;55412;51.350;17.056;2024-03-07T07:18:15;101221.00;;;2.30;81.16
68433;BME280;55412;51.350;17.056;2024-03-07T07:20:41;101220.13;;;2.30;81.48
68433;BME280;55412;51.350;17.056;2024-03-07T07:23:07;101220.78;;;2.26;81.07
68433;BME280;55412;51.350;17.056;2024-03-07T07:25:33;101227.41;;;2.20;81.28
68433;BME280;55412;51.350;17.056;2024-03-07T07:27:59;101216.88;;;2.14;81.09
68433;BME280;55412;51.350;17.056;2024-03-07T07:30:24;101222.06;;;2.16;80.97
68433;BME280;55412;51.350;17.056;2024-03-07T07:32:52;101222.47;;;2.25;81.25
68433;BME280;55412;51.350;17.056;2024-03-07T07:35:19;101221.13;;;2.33;81.18
68433;BME280;55412;51.350;17.056;2024-03-07T07:37:46;101221.28;;;2.36;81.09
68433;BME280;55412;51.350;17.056;2024-03-07T07:40:13;101219.41;;;2.52;81.26
68433;BME280;55412;51.350;17.056;2024-03-07T07:42:43;101219.78;;;2.61;80.97
68433;BME280;55412;51.350;17.056;2024-03-07T07:45:10;101224.84;;;2.59;81.04
68433;BME280;55412;51.350;17.056;2024-03-07T07:47:47;101217.00;;;2.56;81.29
68433;BME280;55412;51.350;17.056;2024-03-07T07:50:18;101215.81;;;2.48;80.95
68433;BME280;55412;51.350;17.056;2024-03-07T07:52:45;101222.56;;;2.46;81.03
68433;BME280;55412;51.350;17.056;2024-03-07T07:55:14;101225.00;;;2.43;81.06
68433;BME280;55412;51.350;17.056;2024-03-07T07:58:04;101218.84;;;2.39;81.00
68433;BME280;55412;51.350;17.056;2024-03-07T08:00:31;101228.50;;;2.45;81.25
68433;BME280;55412;51.350;17.056;2024-03-07T08:03:02;101223.50;;;2.48;81.13
68433;BME280;55412;51.350;17.056;2024-03-07T08:05:31;101224.63;;;2.55;81.18
68433;BME280;55412;51.350;17.056;2024-03-07T08:08:01;101216.75;;;2.69;81.50
68433;BME280;55412;51.350;17.056;2024-03-07T08:10:32;101216.53;;;2.84;81.36
68433;BME280;55412;51.350;17.056;2024-03-07T08:12:59;101216.19;;;2.96;81.19
68433;BME280;55412;51.350;17.056;2024-03-07T08:15:27;101224.19;;;3.03;81.15
68433;BME280;55412;51.350;17.056;2024-03-07T08:17:54;101226.00;;;3.06;80.91
68433;BME280;55412;51.350;17.056;2024-03-07T08:20:21;101217.44;;;3.05;80.96
68433;BME280;55412;51.350;17.056;2024-03-07T08:22:48;101224.56;;;3.13;80.92
68433;BME280;55412;51.350;17.056;2024-03-07T08:25:17;101219.69;;;3.19;81.05
68433;BME280;55412;51.350;17.056;2024-03-07T08:27:44;101225.75;;;3.21;80.65
68433;BME280;55412;51.350;17.056;2024-03-07T08:30:11;101228.47;;;3.24;80.54
68433;BME280;55412;51.350;17.056;2024-03-07T08:32:42;101216.50;;;3.24;80.23
68433;BME280;55412;51.350;17.056;2024-03-07T08:35:08;101228.53;;;3.25;80.14
68433;BME280;55412;51.350;17.056;2024-03-07T08:37:44;101225.97;;;3.25;80.27
68433;BME280;55412;51.350;17.056;2024-03-07T08:40:11;101221.66;;;3.24;80.17
68433;BME280;55412;51.350;17.056;2024-03-07T08:42:40;101223.38;;;3.25;79.99
68433;BME280;55412;51.350;17.056;2024-03-07T08:45:07;101225.25;;;3.29;79.71
68433;BME280;55412;51.350;17.056;2024-03-07T08:47:36;101218.44;;;3.30;80.22
68433;BME280;55412;51.350;17.056;2024-03-07T08:50:04;101226.78;;;3.24;79.93
68433;BME280;55412;51.350;17.056;2024-03-07T08:52:36;101223.44;;;3.27;79.70
68433;BME280;55412;51.350;17.056;2024-03-07T08:55:04;101232.13;;;3.30;79.88
68433;BME280;55412;51.350;17.056;2024-03-07T08:57:30;101227.75;;;3.28;79.90
68433;BME280;55412;51.350;17.056;2024-03-07T08:59:56;101231.34;;;3.31;79.48
68433;BME280;55412;51.350;17.056;2024-03-07T09:02:22;101229.13;;;3.41;79.46
68433;BME280;55412;51.350;17.056;2024-03-07T09:04:48;101237.34;;;3.53;78.96
68433;BME280;55412;51.350;17.056;2024-03-07T09:07:14;101228.06;;;3.56;78.71
68433;BME280;55412;51.350;17.056;2024-03-07T09:09:43;101221.47;;;3.63;78.25
68433;BME280;55412;51.350;17.056;2024-03-07T09:12:11;101215.78;;;3.70;78.14
68433;BME280;55412;51.350;17.056;2024-03-07T09:14:37;101221.25;;;3.79;77.62
68433;BME280;55412;51.350;17.056;2024-03-07T09:17:03;101232.66;;;3.86;77.26
68433;BME280;55412;51.350;17.056;2024-03-07T09:19:33;101226.31;;;3.99;76.96
68433;BME280;55412;51.350;17.056;2024-03-07T09:21:58;101230.56;;;3.98;76.94
68433;BME280;55412;51.350;17.056;2024-03-07T09:24:25;101227.13;;;3.98;76.68
68433;BME280;55412;51.350;17.056;2024-03-07T09:26:51;101220.25;;;3.97;76.63
68433;BME280;55412;51.350;17.056;2024-03-07T09:29:18;101225.59;;;4.03;76.32
68433;BME280;55412;51.350;17.056;2024-03-07T09:31:45;101221.44;;;4.06;76.44
68433;BME280;55412;51.350;17.056;2024-03-07T09:34:12;101233.22;;;4.01;75.84
68433;BME280;55412;51.350;17.056;2024-03-07T09:36:41;101231.19;;;3.93;75.88
68433;BME280;55412;51.350;17.056;2024-03-07T09:39:09;101222.56;;;3.91;74.76
68433;BME280;55412;51.350;17.056;2024-03-07T09:41:35;101230.31;;;3.92;74.76
68433;BME280;55412;51.350;17.056;2024-03-07T09:44:02;101224.19;;;3.88;73.64
68433;BME280;55412;51.350;17.056;2024-03-07T09:46:28;101230.91;;;3.85;73.20
68433;BME280;55412;51.350;17.056;2024-03-07T09:48:55;101233.22;;;3.79;72.73
68433;BME280;55412;51.350;17.056;2024-03-07T09:51:21;101225.28;;;3.73;72.40
68433;BME280;55412;51.350;17.056;2024-03-07T09:53:48;101233.16;;;3.77;72.54
68433;BME280;55412;51.350;17.056;2024-03-07T09:56:22;101227.69;;;3.68;72.78
68433;BME280;55412;51.350;17.056;2024-03-07T09:58:49;101235.13;;;3.62;71.23
68433;BME280;55412;51.350;17.056;2024-03-07T10:01:20;101232.25;;;3.54;69.62
68433;BME280;55412;51.350;17.056;2024-03-07T10:03:50;101226.88;;;3.48;68.36
68433;BME280;55412;51.350;17.056;2024-03-07T10:06:19;101232.00;;;3.48;69.01
68433;BME280;55412;51.350;17.056;2024-03-07T10:08:47;101231.97;;;3.47;68.97
68433;BME280;55412;51.350;17.056;2024-03-07T10:11:14;101231.19;;;3.49;68.71
68433;BME280;55412;51.350;17.056;2024-03-07T10:13:40;101233.19;;;3.56;69.11
68433;BME280;55412;51.350;17.056;2024-03-07T10:16:06;101231.75;;;3.63;69.66
68433;BME280;55412;51.350;17.056;2024-03-07T10:18:41;101227.78;;;3.71;69.26
68433;BME280;55412;51.350;17.056;2024-03-07T10:21:07;101240.94;;;3.79;69.57
68433;BME280;55412;51.350;17.056;2024-03-07T10:23:33;101240.81;;;3.76;68.93
68433;BME280;55412;51.350;17.056;2024-03-07T10:26:00;101228.56;;;3.91;68.85
68433;BME280;55412;51.350;17.056;2024-03-07T10:28:26;101231.69;;;4.05;68.38
68433;BME280;55412;51.350;17.056;2024-03-07T10:30:53;101229.72;;;4.22;68.55
68433;BME280;55412;51.350;17.056;2024-03-07T10:33:19;101224.19;;;4.33;68.51
68433;BME280;55412;51.350;17.056;2024-03-07T10:35:48;101232.28;;;4.44;68.70
68433;BME280;55412;51.350;17.056;2024-03-07T10:38:15;101236.16;;;4.57;68.48
68433;BME280;55412;51.350;17.056;2024-03-07T10:40:47;101227.63;;;4.58;68.18
68433;BME280;55412;51.350;17.056;2024-03-07T10:43:13;101231.03;;;4.57;68.31
68433;BME280;55412;51.350;17.056;2024-03-07T10:45:46;101222.34;;;4.55;68.30
68433;BME280;55412;51.350;17.056;2024-03-07T10:48:13;101229.31;;;4.81;66.94
68433;BME280;55412;51.350;17.056;2024-03-07T11:01:31;101215.75;;;5.11;66.59
68433;BME280;55412;51.350;17.056;2024-03-07T11:04:00;101219.19;;;4.86;66.00
68433;BME280;55412;51.350;17.056;2024-03-07T11:06:31;101223.53;;;4.63;65.82
68433;BME280;55412;51.350;17.056;2024-03-07T11:09:01;101223.91;;;4.50;64.83
68433;BME280;55412;51.350;17.056;2024-03-07T11:11:38;101229.16;;;4.53;64.50
68433;BME280;55412;51.350;17.056;2024-03-07T11:14:10;101206.47;;;4.65;65.00
68433;BME280;55412;51.350;17.056;2024-03-07T11:16:39;101207.16;;;4.85;65.41
68433;BME280;55412;51.350;17.056;2024-03-07T11:19:18;101195.00;;;5.06;65.39
68433;BME280;55412;51.350;17.056;2024-03-07T11:21:46;101200.81;;;5.26;64.64
68433;BME280;55412;51.350;17.056;2024-03-07T11:24:23;101211.22;;;5.56;64.74
68433;BME280;55412;51.350;17.056;2024-03-07T11:26:52;101196.47;;;5.79;65.33
68433;BME280;55412;51.350;17.056;2024-03-07T11:32:13;101187.66;;;6.28;65.10
68433;BME280;55412;51.350;17.056;2024-03-07T11:34:39;101189.97;;;6.49;65.94
68433;BME280;55412;51.350;17.056;2024-03-07T11:37:17;101186.34;;;6.42;65.21
68433;BME280;55412;51.350;17.056;2024-03-07T11:39:46;101184.38;;;6.33;63.99
68433;BME280;55412;51.350;17.056;2024-03-07T11:42:29;101189.13;;;6.20;62.67
68433;BME280;55412;51.350;17.056;2024-03-07T11:44:58;101186.13;;;6.04;62.25
68433;BME280;55412;51.350;17.056;2024-03-07T11:47:24;101185.84;;;5.95;61.71
68433;BME280;55412;51.350;17.056;2024-03-07T11:49:51;101183.16;;;5.92;61.85
68433;BME280;55412;51.350;17.056;2024-03-07T11:52:18;101173.63;;;5.90;61.89
68433;BME280;55412;51.350;17.056;2024-03-07T11:54:44;101167.47;;;5.85;61.03
68433;BME280;55412;51.350;17.056;2024-03-07T11:57:16;101174.47;;;5.89;60.67
68433;BME280;55412;51.350;17.056;2024-03-07T11:59:45;101167.72;;;5.92;60.92
68433;BME280;55412;51.350;17.056;2024-03-07T12:02:14;101168.63;;;5.94;61.50
68433;BME280;55412;51.350;17.056;2024-03-07T12:04:44;101165.91;;;5.90;61.10
68433;BME280;55412;51.350;17.056;2024-03-07T12:07:10;101162.22;;;5.81;61.46
68433;BME280;55412;51.350;17.056;2024-03-07T12:09:43;101161.25;;;5.78;61.77
68433;BME280;55412;51.350;17.056;2024-03-07T12:12:11;101148.25;;;5.73;61.85
68433;BME280;55412;51.350;17.056;2024-03-07T12:14:38;101150.06;;;5.77;62.50
68433;BME280;55412;51.350;17.056;2024-03-07T12:17:04;101150.94;;;5.78;62.23
68433;BME280;55412;51.350;17.056;2024-03-07T12:19:34;101151.69;;;5.74;62.10
68433;BME280;55412;51.350;17.056;2024-03-07T12:22:01;101149.94;;;5.73;61.12
68433;BME280;55412;51.350;17.056;2024-03-07T12:24:28;101151.50;;;5.68;61.17
68433;BME280;55412;51.350;17.056;2024-03-07T12:27:14;101149.69;;;5.65;61.19
68433;BME280;55412;51.350;17.056;2024-03-07T12:29:41;101152.16;;;5.61;60.93
68433;BME280;55412;51.350;17.056;2024-03-07T12:32:13;101152.25;;;5.65;61.20
68433;BME280;55412;51.350;17.056;2024-03-07T12:34:39;101148.78;;;5.63;61.79
68433;BME280;55412;51.350;17.056;2024-03-07T12:37:12;101151.31;;;5.62;61.19
68433;BME280;55412;51.350;17.056;2024-03-07T12:39:42;101140.97;;;5.60;62.09
68433;BME280;55412;51.350;17.056;2024-03-07T12:42:13;101152.25;;;5.65;61.21
68433;BME280;55412;51.350;17.056;2024-03-07T12:44:46;101145.47;;;5.67;61.24
68433;BME280;55412;51.350;17.056;2024-03-07T12:47:15;101145.72;;;5.75;61.81
68433;BME280;55412;51.350;17.056;2024-03-07T12:49:44;101145.34;;;5.63;60.55
68433;BME280;55412;51.350;17.056;2024-03-07T12:52:10;101140.94;;;5.59;61.49
68433;BME280;55412;51.350;17.056;2024-03-07T12:54:39;101144.41;;;5.61;61.65
68433;BME280;55412;51.350;17.056;2024-03-07T12:57:08;101149.56;;;5.61;61.61
68433;BME280;55412;51.350;17.056;2024-03-07T12:59:35;101148.75;;;5.62;60.98
68433;BME280;55412;51.350;17.056;2024-03-07T13:02:04;101155.63;;;5.63;61.39
68433;BME280;55412;51.350;17.056;2024-03-07T13:04:34;101147.41;;;5.74;61.51
68433;BME280;55412;51.350;17.056;2024-03-07T13:07:03;101148.47;;;5.81;61.94
68433;BME280;55412;51.350;17.056;2024-03-07T13:09:30;101160.59;;;5.85;61.78